Latest Weather Observations for Hartz Mountains

IDT60801

Issued at 2:05 pm EST Saturday 2 August 2014 (issued every 30 minutes, with the page automatically refreshed every 10 minutes)

About weather observations | Map of weather stations | Latest weather observations for TAS | Other Formats
Station Details ID: 094191 Name: HARTZ MOUNTAIN (KEOGHS PIMPLE) Lat: -43.20 Lon: 146.77 Height: 831.0 m
Data from the previous 72 hours. | See also: Recent months at Hartz Mountains
Date/Time
EST
Temp
°C
App
Temp
°C
Dew
Point
Rel
Hum
%
Delta-T
°C
Wind Press
QNH
hPa
Press
MSL
hPa
Rain
since 9 am
mm
Dir
 
Spd
km/h
Gust
km/h
Spd
kts
Gust
kts
02/02:00pm 1.0 -9.6 0.7 98 0.1 WSW 46 61 25 33 - - 9.4
02/01:30pm 1.0 -9.0 0.9 99 0.0 WSW 43 57 23 31 - - 7.0
02/01:00pm 0.9 -7.3 0.6 98 0.1 WSW 33 48 18 26 - - 4.4
02/12:30pm 0.8 -9.8 0.5 98 0.1 WSW 46 61 25 33 - - 1.8
02/12:00pm 0.5 -7.7 0.4 99 0.0 WSW 33 44 18 24 - - 0.0
02/11:30am 0.4 -7.8 0.4 100 0.0 WSW 33 44 18 24 - - 0.0
02/11:00am 0.3 -8.3 0.3 100 0.0 WSW 35 48 19 26 - - 0.0
02/10:30am 0.2 -7.8 0.2 100 0.0 WSW 32 43 17 23 - - 0.0
02/10:00am 0.2 -8.4 0.2 100 0.0 WSW 35 44 19 24 - - 0.0
02/09:30am 0.1 -7.2 0.1 100 0.0 WSW 28 44 15 24 - - 0.0
02/09:00am 0.0 -7.7 0.0 100 0.0 WSW 30 41 16 22 - - 0.0
02/08:30am -0.3 -7.3 -0.3 100 0.0 WSW 26 39 14 21 - - 0.0
02/08:00am -0.5 -9.6 -0.5 100 0.0 WSW 37 54 20 29 - - 0.0
02/07:30am -0.7 -9.8 -0.7 100 0.0 WSW 37 50 20 27 - - 0.0
02/07:00am -0.7 -9.8 -0.7 100 0.0 WSW 37 56 20 30 - - 0.0
02/06:30am -1.0 -9.4 -1.0 100 0.0 WSW 33 61 18 33 - - 0.0
02/06:00am -1.2 -8.3 -1.2 100 0.0 W 26 44 14 24 - - 0.0
02/05:30am -1.3 -9.2 -1.3 100 0.0 WSW 30 48 16 26 - - 0.0
02/05:00am -1.4 -12.3 -1.4 100 0.0 WSW 46 69 25 37 - - 0.0
02/04:30am -1.4 -10.2 -1.4 100 0.0 WSW 35 57 19 31 - - 0.0
02/04:00am -1.5 -10.3 -1.5 100 0.0 WSW 35 54 19 29 - - 0.0
02/03:30am -1.5 -9.4 -1.5 100 0.0 WSW 30 44 16 24 - - 0.0
02/03:00am -1.6 -10.8 -1.6 100 0.0 WSW 37 50 20 27 - - 0.0
02/02:30am -1.7 -9.2 -1.7 100 0.0 WSW 28 37 15 20 - - 0.0
02/02:00am -2.0 -10.0 -2.0 100 0.0 WSW 30 39 16 21 - - 0.0
02/01:30am -1.7 -8.5 -1.7 100 0.0 WSW 24 37 13 20 - - 0.0
02/01:00am -1.8 -9.4 -1.8 100 0.0 W 28 37 15 20 - - 0.0
02/12:30am -1.8 -10.1 -1.9 99 0.0 WSW 32 41 17 22 - - 0.0
02/12:00am -1.8 -11.8 -1.9 99 0.0 WSW 41 52 22 28 - - 0.0
 
Date/Time
EST
Temp
°C
App
Temp
°C
Dew
Point
Rel
Hum
%
Delta-T
°C
Wind Press
QNH
hPa
Press
MSL
hPa
Rain
since 9 am
mm
Dir
 
Spd
km/h
Gust
km/h
Spd
kts
Gust
kts
01/11:30pm -2.0 -9.2 -2.1 99 -0.1 SW 26 35 14 19 - - 0.0
01/11:00pm -1.8 -9.4 -1.9 99 0.0 WSW 28 39 15 21 - - 0.0
01/10:30pm -1.5 -9.0 -1.6 99 0.0 WSW 28 41 15 22 - - 0.0
01/10:00pm -1.5 -10.4 -1.6 99 0.0 WSW 35 59 19 32 - - 0.0
01/09:30pm -1.4 -9.3 -1.5 99 0.0 WSW 30 41 16 22 - - 0.0
01/09:00pm -1.5 -9.4 -1.6 99 0.0 WSW 30 44 16 24 - - 0.0
01/08:30pm -2.0 -11.3 -2.3 98 0.0 SW 37 54 20 29 - - 0.0
01/08:00pm -2.2 -11.5 -2.3 99 -0.1 SSW 37 54 20 29 - - 0.0
01/07:30pm -1.9 -12.0 -2.2 98 0.0 SW 41 59 22 32 - - 0.0
01/07:00pm -1.3 -12.6 -1.4 99 0.0 SW 48 70 26 38 - - 0.0
01/06:30pm -1.4 -11.0 -1.5 99 0.0 SW 39 61 21 33 - - 0.0
01/06:00pm -1.2 -8.3 -1.3 99 0.0 WSW 26 50 14 27 - - 0.0
01/05:30pm -1.1 -9.0 -1.2 99 0.0 WSW 30 44 16 24 - - 0.0
01/05:00pm -1.1 -9.5 -1.4 98 0.1 SSW 33 57 18 31 - - 0.0
01/04:30pm -1.0 -9.2 -1.3 98 0.1 WSW 32 48 17 26 - - 0.0
01/04:00pm -0.4 -8.2 -0.7 98 0.1 SW 30 50 16 27 - - 0.0
01/03:30pm -0.3 -6.9 -0.7 97 0.1 SSW 24 50 13 27 - - 0.0
01/03:00pm -0.2 -8.3 -0.5 98 0.1 SSW 32 54 17 29 - - 0.0
01/02:30pm -0.2 -6.4 -0.5 98 0.1 SSW 22 32 12 17 - - 0.0
01/02:00pm -0.8 -10.3 -1.1 98 0.1 SSW 39 59 21 32 - - 0.0
01/01:30pm -1.3 -11.8 -1.4 99 0.0 SSW 44 63 24 34 - - 0.0
01/01:00pm -1.2 -9.1 -1.2 100 0.0 SSW 30 43 16 23 - - 0.0
01/12:30pm -1.1 -8.6 -1.1 100 0.0 SSW 28 54 15 29 - - 0.0
01/12:00pm -0.9 -9.7 -0.9 100 0.0 SSW 35 50 19 27 - - 0.0
01/11:30am -0.7 -6.0 -0.7 100 0.0 SW 17 35 9 19 - - 0.0
01/11:00am -0.6 -7.6 -0.6 100 0.0 S 26 35 14 19 - - 0.0
01/10:30am 0.0 -2.4 0.0 100 0.0 WSW 2 9 1 5 - - 0.0
01/10:00am -0.2 -3.4 -0.2 100 0.0 S 6 9 3 5 - - 0.0
01/09:30am -0.5 -5.4 -0.5 100 0.0 WSW 15 20 8 11 - - 0.0
01/09:00am -0.4 -6.2 -0.4 100 0.0 SSW 20 30 11 16 - - 2.0
01/08:30am -0.3 -5.9 -0.3 100 0.0 WNW 19 30 10 16 - - 2.0
01/08:00am -0.5 -8.8 -0.5 100 0.0 W 33 50 18 27 - - 2.0
01/07:30am -0.9 -8.3 -0.9 100 0.0 WNW 28 46 15 25 - - 2.0
01/07:00am -0.9 -8.3 -0.9 100 0.0 WNW 28 41 15 22 - - 2.0
01/06:30am -0.9 -9.7 -1.0 99 0.0 WNW 35 52 19 28 - - 2.0
01/06:00am -0.9 -9.1 -0.9 100 0.0 WNW 32 54 17 29 - - 2.0
01/05:30am -0.9 -9.7 -0.9 100 0.0 WNW 35 57 19 31 - - 2.0
01/05:00am -1.1 -9.5 -1.1 100 0.0 WNW 33 56 18 30 - - 2.0
01/04:30am -1.1 -8.9 -1.1 100 0.0 WNW 30 48 16 26 - - 2.0
01/04:00am -1.1 -8.6 -1.1 100 0.0 WNW 28 44 15 24 - - 2.0
01/03:30am -1.2 -9.1 -1.3 99 0.0 WNW 30 52 16 28 - - 2.0
01/03:00am -1.1 -9.5 -1.4 98 0.1 WNW 33 52 18 28 - - 2.0
01/02:30am -1.0 -8.8 -1.1 99 0.0 WNW 30 46 16 25 - - 2.0
01/02:00am -1.3 -9.7 -1.4 99 0.0 WNW 33 56 18 30 - - 2.0
01/01:30am -1.3 -9.7 -1.3 100 0.0 WNW 33 50 18 27 - - 2.0
01/01:00am -1.3 -10.1 -1.3 100 0.0 WNW 35 56 19 30 - - 2.0
01/12:30am -1.2 -10.4 -1.2 100 0.0 WNW 37 57 20 31 - - 2.0
01/12:00am -0.9 -8.7 -0.9 100 0.0 WNW 30 44 16 24 - - 2.0
 
Date/Time
EST
Temp
°C
App
Temp
°C
Dew
Point
Rel
Hum
%
Delta-T
°C
Wind Press
QNH
hPa
Press
MSL
hPa
Rain
since 9 am
mm
Dir
 
Spd
km/h
Gust
km/h
Spd
kts
Gust
kts
31/11:30pm -0.9 -11.2 -0.9 100 0.0 WNW 43 59 23 32 - - 2.0
31/11:00pm -0.8 -8.2 -0.8 100 0.0 WNW 28 48 15 26 - - 2.0
31/10:30pm -0.9 -8.7 -0.9 100 0.0 WNW 30 46 16 25 - - 2.0
31/10:00pm -0.8 -9.9 -0.8 100 0.0 W 37 59 20 32 - - 2.0
31/09:30pm -0.6 -10.1 -0.6 100 0.0 WNW 39 67 21 36 - - 2.0
31/09:00pm -0.6 -10.1 -0.6 100 0.0 WNW 39 61 21 33 - - 2.0
31/08:30pm -0.4 -9.9 -0.4 100 0.0 WNW 39 61 21 33 - - 2.0
31/08:00pm -0.4 -10.2 -0.4 100 0.0 WNW 41 63 22 34 - - 2.0
31/07:30pm -0.3 -9.0 -0.3 100 0.0 WNW 35 65 19 35 - - 2.0
31/07:00pm -0.3 -8.0 -0.3 100 0.0 NW 30 52 16 28 - - 2.0
31/06:30pm -0.3 -8.0 -0.3 100 0.0 NW 30 44 16 24 - - 2.0
31/06:00pm -0.3 -7.3 -0.3 100 0.0 NW 26 37 14 20 - - 2.0
31/05:30pm -0.3 -7.3 -0.3 100 0.0 NW 26 35 14 19 - - 1.8
31/05:00pm -0.2 -6.4 -0.2 100 0.0 NW 22 43 12 23 - - 1.8
31/04:30pm -0.1 -5.9 -0.1 100 0.0 NW 20 28 11 15 - - 1.8
31/04:00pm -0.1 -5.3 -0.1 100 0.0 NNW 17 26 9 14 - - 1.8
31/03:30pm -0.1 -4.6 -0.1 100 0.0 NW 13 19 7 10 - - 1.6
31/03:00pm 0.1 -3.2 0.1 100 0.0 WNW 7 15 4 8 - - 1.4
31/02:30pm -0.2 -3.4 -0.2 100 0.0 WSW 6 11 3 6 - - 1.2
31/02:00pm 0.1 -3.2 0.1 100 0.0 WSW 7 11 4 6 - - 1.0
31/01:30pm -0.2 -2.2 -0.2 100 0.0 CALM 0 0 0 0 - - 1.0
31/01:00pm 0.1 -1.9 0.1 100 0.0 CALM 0 0 0 0 - - 0.8
31/12:30pm 0.0 -3.3 0.0 100 0.0 SSW 7 13 4 7 - - 0.8
31/12:00pm 0.1 -3.6 0.1 100 0.0 W 9 11 5 6 - - 0.6
31/11:30am 0.1 -4.3 0.1 100 0.0 W 13 17 7 9 - - 0.6
31/11:00am 0.1 -3.6 0.1 100 0.0 W 9 13 5 7 - - 0.4
31/10:30am 0.0 -4.5 0.0 100 0.0 W 13 19 7 10 - - 0.2
31/10:00am 0.0 -4.5 0.0 100 0.0 WNW 13 19 7 10 - - 0.2
31/09:30am 0.0 -4.5 0.0 100 0.0 WNW 13 17 7 9 - - 0.0
31/09:00am 0.1 -3.2 0.1 100 0.0 N 7 13 4 7 - - 34.0
31/08:30am 0.2 -4.6 0.2 100 0.0 N 15 24 8 13 - - 33.8
31/08:00am 0.1 -5.1 0.1 100 0.0 NNW 17 24 9 13 - - 33.8
31/07:30am 0.1 -5.7 0.1 100 0.0 NW 20 30 11 16 - - 33.8
31/07:00am 0.2 -7.1 0.2 100 0.0 NW 28 41 15 22 - - 33.8
31/06:30am 0.1 -5.7 0.1 100 0.0 NW 20 35 11 19 - - 33.6
31/06:00am 0.0 -5.6 0.0 100 0.0 WNW 19 26 10 14 - - 33.4
31/05:30am 0.1 -5.5 0.1 100 0.0 NW 19 26 10 14 - - 33.4
31/05:00am 0.4 -5.1 0.4 100 0.0 WNW 19 32 10 17 - - 33.2
31/04:30am 0.9 -3.4 0.9 100 0.0 WNW 13 17 7 9 - - 33.0
31/04:00am 1.3 -5.8 1.3 100 0.0 W 28 41 15 22 - - 32.0
31/03:30am 1.6 -5.5 1.5 99 0.0 WSW 28 37 15 20 - - 31.0
31/03:00am 2.3 -5.4 2.2 99 0.0 WSW 32 44 17 24 - - 30.0
31/02:30am 3.4 -5.1 3.3 99 0.0 WNW 37 61 20 33 - - 29.0
31/02:00am 3.8 -5.4 3.7 99 0.0 W 41 65 22 35 - - 28.6
31/01:30am 4.3 -5.3 4.2 99 0.0 WNW 44 63 24 34 - - 27.4
31/01:00am 4.2 -6.6 4.1 99 0.0 WNW 50 83 27 45 - - 27.0
31/12:30am 4.8 -4.8 4.4 97 0.2 WNW 44 89 24 48 - - 26.4
31/12:00am 5.4 -4.5 5.0 97 0.2 WNW 46 85 25 46 - - 24.4
 
Date/Time
EST
Temp
°C
App
Temp
°C
Dew
Point
Rel
Hum
%
Delta-T
°C
Wind Press
QNH
hPa
Press
MSL
hPa
Rain
since 9 am
mm
Dir
 
Spd
km/h
Gust
km/h
Spd
kts
Gust
kts
30/11:30pm 5.4 -7.7 4.8 96 0.3 WNW 63 107 34 58 - - 24.2
30/11:00pm 5.3 -7.1 4.9 97 0.2 WNW 59 96 32 52 - - 23.8
30/10:30pm 5.2 -6.2 4.9 98 0.1 WNW 54 78 29 42 - - 23.4
30/10:00pm 5.3 -4.2 4.9 97 0.2 WNW 44 80 24 43 - - 22.4
30/09:30pm 5.4 -6.4 5.0 97 0.2 NW 56 83 30 45 - - 22.2
30/09:00pm 5.6 -6.2 4.9 95 0.3 WNW 56 78 30 42 - - 21.6
30/08:30pm 5.5 -6.4 5.2 98 0.1 WNW 57 96 31 52 - - 21.4
30/08:00pm 5.5 -3.9 5.2 98 0.1 WNW 44 65 24 35 - - 20.8
30/07:30pm 5.3 -5.0 4.9 97 0.2 WNW 48 80 26 43 - - 20.2
30/07:00pm 5.1 -7.7 4.5 96 0.3 WNW 61 89 33 48 - - 19.6
30/06:30pm 5.1 -7.3 4.4 95 0.3 WNW 59 95 32 51 - - 19.0
30/06:00pm 4.9 -5.9 4.2 95 0.3 WNW 50 76 27 41 - - 19.0
30/05:30pm 5.3 -4.6 4.9 97 0.2 WNW 46 70 25 38 - - 18.8
30/05:00pm 5.5 -6.8 5.1 97 0.2 WNW 59 91 32 49 - - 18.6
30/04:30pm 5.1 -3.4 5.0 99 0.0 NW 39 56 21 30 - - 18.6
30/04:00pm 4.4 -2.2 4.3 99 0.0 WNW 28 56 15 30 - - 17.8
30/03:30pm 4.1 -3.9 4.0 99 0.0 WSW 35 54 19 29 - - 16.6
30/03:00pm 4.8 -1.3 4.7 99 0.0 WNW 26 43 14 23 - - 13.6
30/02:30pm 4.5 -4.1 4.4 99 0.0 WNW 39 65 21 35 - - 11.4

Other Formats:

Comma delimited format used in spreadsheet applications
http://www.bom.gov.au/fwo/IDT60801/IDT60801.94977.axf

JavaScript Object Notation format (JSON) in row-major order
http://www.bom.gov.au/fwo/IDT60801/IDT60801.94977.json